Time;durP1;ratioP1;P1;durP2;ratioP2;P2;SDS_P1;SDS_P2;PMS_P1;PMS_P2;Temp;Humidity;BMP_temperature;BMP_pressure;BME280_temperature;BME280_humidity;BME280_pressure;Samples;Min_cycle;Max_cycle;Signal;HPM_P1;HPM_P2
2021/07/16 00:01:46;;;;;;;4.77;0.70;;;;;;;;;;5000626;28;20230;-75
2021/07/16 00:04:51;;;;;;;1.10;0.70;;;;;;;;;;4995948;28;20190;-75
2021/07/16 00:07:55;;;;;;;0.53;0.53;;;;;;;;;;5007748;28;20205;-74
2021/07/16 00:10:59;;;;;;;4.90;0.70;;;;;;;;;;5015237;28;20221;-75
2021/07/16 00:14:03;;;;;;;2.20;0.83;;;;;;;;;;5006084;28;20197;-74
2021/07/16 00:17:07;;;;;;;2.53;0.70;;;;;;;;;;5008248;28;20205;-74
2021/07/16 00:20:12;;;;;;;0.93;0.50;;;;;;;;;;4996446;28;20209;-75
2021/07/16 00:23:17;;;;;;;2.20;0.60;;;;;;;;;;5001726;28;20182;-74
2021/07/16 00:26:21;;;;;;;2.90;0.70;;;;;;;;;;5014534;28;20193;-75
2021/07/16 00:29:28;;;;;;;3.00;0.60;;;;;;;;;;4986173;28;20214;-74
2021/07/16 00:32:34;;;;;;;3.00;0.83;;;;;;;;;;5013159;28;20214;-75
2021/07/16 00:35:38;;;;;;;2.03;0.80;;;;;;;;;;5014956;28;20514;-75
2021/07/16 00:38:44;;;;;;;3.33;0.70;;;;;;;;;;4996595;28;20205;-74
2021/07/16 00:41:48;;;;;;;1.77;0.90;;;;;;;;;;5010511;28;20225;-74
2021/07/16 00:44:52;;;;;;;1.10;0.70;;;;;;;;;;5013191;28;20205;-74
2021/07/16 00:47:57;;;;;;;1.07;0.80;;;;;;;;;;4985987;28;20534;-74
2021/07/16 00:51:02;;;;;;;5.07;0.70;;;;;;;;;;5004428;28;20225;-74
2021/07/16 00:54:07;;;;;;;2.10;0.80;;;;;;;;;;5003267;28;20652;-74
2021/07/16 00:57:11;;;;;;;1.10;0.80;;;;;;;;;;4999674;28;20190;-75
2021/07/16 01:00:16;;;;;;;2.13;0.90;;;;;;;;;;4995214;28;20515;-75
2021/07/16 01:03:20;;;;;;;1.77;0.97;;;;;;;;;;5007680;28;20197;-74
2021/07/16 01:06:26;;;;;;;5.03;0.93;;;;;;;;;;5007220;28;20660;-74
2021/07/16 01:09:30;;;;;;;7.60;1.00;;;;;;;;;;4992319;28;20554;-74
2021/07/16 01:12:37;;;;;;;1.87;0.70;;;;;;;;;;4990670;28;20697;-74
2021/07/16 01:15:41;;;;;;;4.27;0.80;;;;;;;;;;4990803;28;20586;-74
2021/07/16 01:18:45;;;;;;;4.27;0.97;;;;;;;;;;5009361;28;20288;-74
2021/07/16 01:21:52;;;;;;;1.63;0.90;;;;;;;;;;4990405;28;20717;-73
2021/07/16 01:24:58;;;;;;;0.83;0.83;;;;;;;;;;4990309;28;20182;-75
2021/07/16 01:28:02;;;;;;;1.20;0.70;;;;;;;;;;4997046;28;20562;-75
2021/07/16 01:31:07;;;;;;;4.30;0.90;;;;;;;;;;4999936;28;20245;-75
2021/07/16 01:34:12;;;;;;;2.33;0.93;;;;;;;;;;5000671;28;20194;-75
2021/07/16 01:37:16;;;;;;;2.03;0.90;;;;;;;;;;4999434;28;20189;-75
2021/07/16 01:40:23;;;;;;;2.00;0.70;;;;;;;;;;4996945;28;20550;-75
2021/07/16 01:43:27;;;;;;;1.27;0.70;;;;;;;;;;5007801;28;20205;-75
2021/07/16 01:46:32;;;;;;;7.43;1.10;;;;;;;;;;5012333;28;20541;-75
2021/07/16 01:49:36;;;;;;;1.73;0.87;;;;;;;;;;5008014;28;20210;-75
2021/07/16 01:52:43;;;;;;;9.83;1.10;;;;;;;;;;5006460;28;20230;-75
2021/07/16 01:55:47;;;;;;;2.00;1.20;;;;;;;;;;4999942;28;20644;-75
2021/07/16 01:58:52;;;;;;;3.43;1.03;;;;;;;;;;4994153;28;20202;-76
2021/07/16 02:01:57;;;;;;;2.83;1.20;;;;;;;;;;4991561;28;20222;-75
2021/07/16 02:05:01;;;;;;;4.30;1.27;;;;;;;;;;4998138;28;20629;-76
2021/07/16 02:08:14;;;;;;;1.73;1.33;;;;;;;;;;4999124;28;20664;-75
2021/07/16 02:11:21;;;;;;;1.83;1.40;;;;;;;;;;5016945;28;20229;-76
2021/07/16 02:14:26;;;;;;;7.33;2.03;;;;;;;;;;5011563;28;20205;-75
2021/07/16 02:17:30;;;;;;;3.30;1.67;;;;;;;;;;5004888;28;20514;-75
2021/07/16 02:20:37;;;;;;;3.77;1.30;;;;;;;;;;4998947;28;20665;-75
2021/07/16 02:23:41;;;;;;;3.97;1.30;;;;;;;;;;4997782;28;20178;-75
2021/07/16 02:26:45;;;;;;;1.67;1.30;;;;;;;;;;5008483;28;20189;-75
2021/07/16 02:29:50;;;;;;;2.43;1.70;;;;;;;;;;4997684;28;20213;-76
2021/07/16 02:32:56;;;;;;;4.97;1.77;;;;;;;;;;5006389;28;20229;-75
2021/07/16 02:36:01;;;;;;;2.83;2.20;;;;;;;;;;5009506;28;20656;-76
2021/07/16 02:39:05;;;;;;;4.87;2.53;;;;;;;;;;4997133;28;20198;-75
2021/07/16 02:42:09;;;;;;;4.73;2.80;;;;;;;;;;4996484;28;20225;-75
2021/07/16 02:45:17;;;;;;;13.43;3.13;;;;;;;;;;4997480;28;20198;-75
2021/07/16 02:48:22;;;;;;;8.83;3.10;;;;;;;;;;5015067;28;20185;-75
2021/07/16 02:51:25;;;;;;;5.43;2.90;;;;;;;;;;5007190;28;20221;-75
2021/07/16 02:54:30;;;;;;;6.10;2.93;;;;;;;;;;5005269;28;20186;-75
2021/07/16 02:57:34;;;;;;;6.37;3.37;;;;;;;;;;5013921;28;20537;-75
2021/07/16 03:00:38;;;;;;;9.73;4.03;;;;;;;;;;5015064;28;20186;-75
2021/07/16 03:03:42;;;;;;;3.40;2.77;;;;;;;;;;5015481;28;20197;-76
2021/07/16 03:06:47;;;;;;;8.20;3.30;;;;;;;;;;5001778;28;20542;-75
2021/07/16 03:09:50;;;;;;;8.73;2.80;;;;;;;;;;4995929;28;20210;-76
2021/07/16 03:13:03;;;;;;;4.77;3.20;;;;;;;;;;5000065;28;20221;-75
2021/07/16 03:16:07;;;;;;;6.23;2.70;;;;;;;;;;5009328;28;20657;-75
2021/07/16 03:19:11;;;;;;;6.37;3.40;;;;;;;;;;4996716;28;20202;-76
2021/07/16 03:22:15;;;;;;;6.67;3.27;;;;;;;;;;5014676;28;20224;-76
2021/07/16 03:25:21;;;;;;;6.97;3.37;;;;;;;;;;5012671;28;20193;-75
2021/07/16 03:28:25;;;;;;;4.50;3.10;;;;;;;;;;5006040;28;20530;-75
2021/07/16 03:31:29;;;;;;;5.17;3.43;;;;;;;;;;5013746;28;20210;-75
2021/07/16 03:34:33;;;;;;;4.87;3.00;;;;;;;;;;5003756;28;20181;-75
2021/07/16 03:37:38;;;;;;;5.13;2.77;;;;;;;;;;5010899;28;20189;-75
2021/07/16 03:40:42;;;;;;;6.80;3.33;;;;;;;;;;5013515;28;20189;-75
2021/07/16 03:43:47;;;;;;;6.60;2.73;;;;;;;;;;5015086;28;20676;-76
2021/07/16 03:46:51;;;;;;;5.03;2.97;;;;;;;;;;5007970;28;20206;-76
2021/07/16 03:49:55;;;;;;;4.90;3.57;;;;;;;;;;5014316;28;20213;-76
2021/07/16 03:52:59;;;;;;;6.47;3.80;;;;;;;;;;4999161;28;20225;-76
2021/07/16 03:56:04;;;;;;;9.17;4.67;;;;;;;;;;5003837;28;20201;-76
2021/07/16 03:59:08;;;;;;;12.23;5.47;;;;;;;;;;4995246;28;20174;-76
2021/07/16 04:02:12;;;;;;;9.40;5.30;;;;;;;;;;5007568;28;20224;-76
2021/07/16 04:05:16;;;;;;;8.60;5.23;;;;;;;;;;5012900;28;20181;-76
2021/07/16 04:08:20;;;;;;;8.63;5.47;;;;;;;;;;5013717;28;20185;-76
2021/07/16 04:11:24;;;;;;;9.93;6.00;;;;;;;;;;4995844;28;20562;-76
2021/07/16 04:14:28;;;;;;;12.53;6.53;;;;;;;;;;5004393;28;20198;-76
2021/07/16 04:17:32;;;;;;;13.17;8.23;;;;;;;;;;5010915;28;20193;-76
2021/07/16 04:20:39;;;;;;;9.10;7.17;;;;;;;;;;5005970;28;20198;-76
2021/07/16 04:23:43;;;;;;;11.17;7.27;;;;;;;;;;5002621;28;20550;-76
2021/07/16 04:26:47;;;;;;;11.90;6.80;;;;;;;;;;4997148;28;20194;-75
2021/07/16 04:29:51;;;;;;;13.77;8.30;;;;;;;;;;5006017;28;20210;-76
2021/07/16 04:32:58;;;;;;;12.03;7.77;;;;;;;;;;5009780;28;20220;-76
2021/07/16 04:36:02;;;;;;;12.23;7.40;;;;;;;;;;5002452;28;20194;-76
2021/07/16 04:39:06;;;;;;;13.23;8.27;;;;;;;;;;4994699;28;20206;-76
2021/07/16 04:42:10;;;;;;;11.70;7.43;;;;;;;;;;5000463;28;20217;-76
2021/07/16 04:45:15;;;;;;;12.10;8.00;;;;;;;;;;5014737;28;20177;-76
2021/07/16 04:48:19;;;;;;;11.33;7.50;;;;;;;;;;4995645;28;20194;-75
2021/07/16 04:51:27;;;;;;;10.53;8.00;;;;;;;;;;5012730;28;20230;-75
2021/07/16 04:54:32;;;;;;;10.87;7.67;;;;;;;;;;4989406;28;20205;-75
2021/07/16 04:57:36;;;;;;;13.33;7.57;;;;;;;;;;5001367;28;20197;-75
2021/07/16 05:00:40;;;;;;;12.10;8.00;;;;;;;;;;5006387;28;20530;-75
2021/07/16 05:04:13;;;;;;;10.73;7.10;;;;;;;;;;4994799;28;20202;-74
2021/07/16 05:07:27;;;;;;;13.47;8.40;;;;;;;;;;4993929;28;20182;-75
2021/07/16 05:10:32;;;;;;;9.87;7.27;;;;;;;;;;5001512;28;20218;-75
2021/07/16 05:13:38;;;;;;;11.80;8.53;;;;;;;;;;4994416;28;20205;-76
2021/07/16 05:16:45;;;;;;;13.07;9.27;;;;;;;;;;5008279;28;20313;-76
2021/07/16 05:19:55;;;;;;;17.53;9.07;;;;;;;;;;4974029;28;20208;-75
2021/07/16 05:23:00;;;;;;;12.77;8.53;;;;;;;;;;4994925;28;20638;-75
2021/07/16 05:26:04;;;;;;;11.87;8.37;;;;;;;;;;5003562;28;20680;-74
2021/07/16 05:29:08;;;;;;;13.97;8.53;;;;;;;;;;5012333;28;20644;-75
2021/07/16 05:32:12;;;;;;;21.77;9.87;;;;;;;;;;5001202;28;20218;-75
2021/07/16 05:35:20;;;;;;;11.70;8.80;;;;;;;;;;5003491;28;20185;-74
2021/07/16 05:38:25;;;;;;;12.53;8.20;;;;;;;;;;5008165;28;20531;-75
2021/07/16 05:41:29;;;;;;;12.73;8.47;;;;;;;;;;5004766;28;20213;-75
2021/07/16 05:44:33;;;;;;;11.23;8.13;;;;;;;;;;5012178;28;20213;-75
2021/07/16 05:47:37;;;;;;;11.03;9.03;;;;;;;;;;5012742;28;20213;-75
2021/07/16 05:50:42;;;;;;;10.73;7.37;;;;;;;;;;5005164;28;20222;-75
2021/07/16 05:53:46;;;;;;;10.47;8.57;;;;;;;;;;4994123;28;20186;-75
2021/07/16 05:56:51;;;;;;;10.30;7.70;;;;;;;;;;5003685;28;20193;-75
2021/07/16 05:59:54;;;;;;;9.37;7.10;;;;;;;;;;5012933;28;20529;-75
2021/07/16 06:02:59;;;;;;;12.27;7.30;;;;;;;;;;5012608;28;20220;-74
2021/07/16 06:06:03;;;;;;;12.37;6.43;;;;;;;;;;5011731;28;20201;-74
2021/07/16 06:09:08;;;;;;;8.07;6.90;;;;;;;;;;5012699;28;20205;-75
2021/07/16 06:12:12;;;;;;;7.20;6.03;;;;;;;;;;5005997;28;20562;-75
2021/07/16 06:15:16;;;;;;;7.53;5.93;;;;;;;;;;4996828;28;20185;-75
2021/07/16 06:18:22;;;;;;;8.40;6.83;;;;;;;;;;5004333;28;20189;-75
2021/07/16 06:21:27;;;;;;;9.27;7.00;;;;;;;;;;4982138;28;20213;-75
2021/07/16 06:24:31;;;;;;;8.17;6.57;;;;;;;;;;4993873;28;20201;-75
2021/07/16 06:27:36;;;;;;;7.03;5.83;;;;;;;;;;4995564;28;20190;-75
2021/07/16 06:30:40;;;;;;;8.43;5.63;;;;;;;;;;5006147;28;20546;-75
2021/07/16 06:33:44;;;;;;;7.60;5.77;;;;;;;;;;4995972;28;20190;-75
2021/07/16 06:36:48;;;;;;;6.63;5.03;;;;;;;;;;4993820;28;20174;-75
2021/07/16 06:39:52;;;;;;;8.53;5.67;;;;;;;;;;5010849;28;20189;-75
2021/07/16 06:42:56;;;;;;;6.53;5.60;;;;;;;;;;5001676;28;20708;-75
2021/07/16 06:46:00;;;;;;;5.73;5.03;;;;;;;;;;5009192;28;20193;-75
2021/07/16 06:49:04;;;;;;;6.53;5.53;;;;;;;;;;5013653;28;20198;-75
2021/07/16 06:52:08;;;;;;;6.97;6.07;;;;;;;;;;5016185;28;20209;-75
2021/07/16 06:55:12;;;;;;;8.60;6.67;;;;;;;;;;4999872;28;20193;-75
2021/07/16 06:58:17;;;;;;;11.10;6.50;;;;;;;;;;4993610;28;20182;-75
2021/07/16 07:01:21;;;;;;;7.57;6.13;;;;;;;;;;5005259;28;20205;-75
2021/07/16 07:04:25;;;;;;;6.80;5.90;;;;;;;;;;4981572;28;20186;-75
2021/07/16 07:07:29;;;;;;;8.93;5.87;;;;;;;;;;4998147;28;20189;-75
2021/07/16 07:10:34;;;;;;;6.43;5.83;;;;;;;;;;5005712;28;20241;-75
2021/07/16 07:13:38;;;;;;;6.97;4.80;;;;;;;;;;5001805;28;20181;-75
2021/07/16 07:16:42;;;;;;;6.23;5.20;;;;;;;;;;5004424;28;20542;-75
2021/07/16 07:19:46;;;;;;;6.80;5.70;;;;;;;;;;5012305;28;20177;-75
2021/07/16 07:22:50;;;;;;;6.80;4.93;;;;;;;;;;5004149;28;20212;-75
2021/07/16 07:25:55;;;;;;;7.30;6.60;;;;;;;;;;5011757;28;20692;-75
2021/07/16 07:29:05;;;;;;;8.50;6.33;;;;;;;;;;5001817;28;20661;-75
2021/07/16 07:32:15;;;;;;;7.03;5.40;;;;;;;;;;5004398;28;20225;-75
2021/07/16 07:35:19;;;;;;;6.93;6.17;;;;;;;;;;5016089;28;20201;-75
2021/07/16 07:38:23;;;;;;;7.13;5.33;;;;;;;;;;5013701;28;20185;-75
2021/07/16 07:41:27;;;;;;;7.23;5.83;;;;;;;;;;4996244;28;20214;-75
2021/07/16 07:44:31;;;;;;;6.70;5.23;;;;;;;;;;4996239;28;20209;-75
2021/07/16 07:47:36;;;;;;;6.23;4.57;;;;;;;;;;4995638;28;20625;-75
2021/07/16 07:50:40;;;;;;;6.40;5.23;;;;;;;;;;4996006;28;20201;-76
2021/07/16 07:53:44;;;;;;;5.90;4.97;;;;;;;;;;5006410;28;20201;-75
2021/07/16 07:56:48;;;;;;;7.00;5.90;;;;;;;;;;5015704;28;20186;-75
2021/07/16 07:59:52;;;;;;;6.10;5.47;;;;;;;;;;5001225;28;20198;-76
2021/07/16 08:02:57;;;;;;;8.17;5.67;;;;;;;;;;4995693;28;20225;-75
2021/07/16 08:06:01;;;;;;;7.23;5.13;;;;;;;;;;5006091;28;20201;-75
2021/07/16 08:09:29;;;;;;;7.70;5.17;;;;;;;;;;5011254;28;20648;-77
2021/07/16 08:12:34;;;;;;;6.80;4.60;;;;;;;;;;5009335;28;20217;-77
2021/07/16 08:15:38;;;;;;;4.50;4.10;;;;;;;;;;5005426;28;20197;-77
2021/07/16 08:18:42;;;;;;;6.83;4.57;;;;;;;;;;5010510;28;20193;-76
2021/07/16 08:21:47;;;;;;;5.77;4.30;;;;;;;;;;5007562;28;20225;-76
2021/07/16 08:24:52;;;;;;;5.10;3.70;;;;;;;;;;5012966;28;20185;-76
2021/07/16 08:27:56;;;;;;;5.90;4.23;;;;;;;;;;5005575;28;20209;-77
2021/07/16 08:31:00;;;;;;;5.60;3.77;;;;;;;;;;5002662;28;20236;-77
2021/07/16 08:34:04;;;;;;;6.30;3.57;;;;;;;;;;5012406;28;20197;-77
2021/07/16 08:37:08;;;;;;;5.07;3.13;;;;;;;;;;5010410;28;20193;-77
2021/07/16 08:40:14;;;;;;;3.40;3.10;;;;;;;;;;5005114;28;20205;-76
2021/07/16 08:43:19;;;;;;;5.17;3.63;;;;;;;;;;4998457;28;20213;-76
2021/07/16 08:46:24;;;;;;;7.23;4.03;;;;;;;;;;5000315;28;20190;-77
2021/07/16 08:49:28;;;;;;;3.90;3.50;;;;;;;;;;5010303;28;20636;-77
2021/07/16 08:52:32;;;;;;;3.90;3.00;;;;;;;;;;4996588;28;20238;-76
2021/07/16 08:55:37;;;;;;;6.83;3.60;;;;;;;;;;5001024;28;20182;-77
2021/07/16 08:58:43;;;;;;;3.53;3.10;;;;;;;;;;5006822;28;20294;-76
2021/07/16 09:01:47;;;;;;;3.10;2.80;;;;;;;;;;5006660;28;20682;-76
2021/07/16 09:04:57;;;;;;;5.60;3.00;;;;;;;;;;4994866;28;20174;-76
2021/07/16 09:08:01;;;;;;;3.60;2.17;;;;;;;;;;4996671;28;20200;-76
2021/07/16 09:11:05;;;;;;;4.47;2.23;;;;;;;;;;4996213;28;20233;-77
2021/07/16 09:14:18;;;;;;;2.23;2.00;;;;;;;;;;4998956;28;20189;-76
2021/07/16 09:17:26;;;;;;;7.53;1.90;;;;;;;;;;4994648;28;20193;-76
2021/07/16 09:20:30;;;;;;;3.47;1.90;;;;;;;;;;4994708;28;20197;-77
2021/07/16 09:23:37;;;;;;;1.63;1.53;;;;;;;;;;4995496;28;20536;-76
2021/07/16 09:26:42;;;;;;;3.83;1.40;;;;;;;;;;5011609;28;20193;-76
2021/07/16 09:29:48;;;;;;;3.83;1.83;;;;;;;;;;5009071;28;20200;-77
2021/07/16 09:32:55;;;;;;;0.93;0.83;;;;;;;;;;5001294;28;20728;-76
2021/07/16 09:36:01;;;;;;;1.80;1.20;;;;;;;;;;5000546;28;20642;-77
2021/07/16 09:39:18;;;;;;;1.97;1.40;;;;;;;;;;5001893;28;20644;-77
2021/07/16 09:42:22;;;;;;;2.60;1.23;;;;;;;;;;5011877;28;20223;-76
2021/07/16 09:45:27;;;;;;;1.48;0.93;;;;;;;;;;5013280;28;20185;-76
2021/07/16 09:48:33;;;;;;;1.77;0.90;;;;;;;;;;5003939;28;20194;-76
2021/07/16 09:51:42;;;;;;;1.48;1.10;;;;;;;;;;5005886;28;20227;-77
2021/07/16 09:55:11;;;;;;;1.45;1.00;;;;;;;;;;5003594;28;20197;-76
2021/07/16 09:58:27;;;;;;;2.97;0.98;;;;;;;;;;5001825;28;20196;-77
2021/07/16 10:01:34;;;;;;;2.58;0.90;;;;;;;;;;4999639;28;20223;-76
2021/07/16 10:04:39;;;;;;;1.10;0.82;;;;;;;;;;5008193;23;20242;-73
2021/07/16 10:07:44;;;;;;;2.25;0.90;;;;;;;;;;4993193;28;20200;-73
2021/07/16 10:10:51;;;;;;;1.27;0.70;;;;;;;;;;4978922;28;20531;-73
2021/07/16 10:13:56;;;;;;;1.95;0.98;;;;;;;;;;4988956;28;20190;-73
2021/07/16 10:17:01;;;;;;;3.65;0.85;;;;;;;;;;4982315;28;20642;-73
2021/07/16 10:20:08;;;;;;;1.02;0.80;;;;;;;;;;4978312;28;20187;-73
2021/07/16 10:23:13;;;;;;;2.28;1.02;;;;;;;;;;4990306;28;20654;-75
2021/07/16 10:26:21;;;;;;;1.30;0.77;;;;;;;;;;4985300;28;20205;-74
2021/07/16 10:29:37;;;;;;;2.35;1.20;;;;;;;;;;4980702;28;20542;-73
2021/07/16 10:32:49;;;;;;;3.22;1.23;;;;;;;;;;4994930;28;20712;-73
2021/07/16 10:35:54;;;;;;;5.65;2.10;;;;;;;;;;4984612;28;20187;-72
2021/07/16 10:38:59;;;;;;;3.53;1.70;;;;;;;;;;4981799;28;20185;-73
2021/07/16 10:42:25;;;;;;;3.72;1.88;;;;;;;;;;4977668;28;20220;-74
2021/07/16 10:45:38;;;;;;;4.53;0.73;;;;;;;;;;4982221;28;20194;-74
2021/07/16 10:48:43;;;;;;;1.70;0.60;;;;;;;;;;4990161;28;20211;-73
2021/07/16 10:52:03;;;;;;;1.98;0.88;;;;;;;;;;4997023;28;20218;-74
2021/07/16 10:55:09;;;;;;;1.70;1.00;;;;;;;;;;4982909;28;21392;-73
2021/07/16 10:58:17;;;;;;;2.67;1.23;;;;;;;;;;4991148;28;20180;-74
2021/07/16 11:01:33;;;;;;;1.10;0.93;;;;;;;;;;4977642;28;20689;-73
2021/07/16 11:04:37;;;;;;;1.55;0.85;;;;;;;;;;4991437;28;20207;-73
2021/07/16 11:07:41;;;;;;;0.73;0.52;;;;;;;;;;4976815;28;20197;-73
2021/07/16 11:10:51;;;;;;;1.10;0.70;;;;;;;;;;4995794;28;20210;-73
2021/07/16 11:13:59;;;;;;;5.03;0.73;;;;;;;;;;4995930;28;20179;-73
2021/07/16 11:17:03;;;;;;;0.82;0.70;;;;;;;;;;4996146;28;20187;-73
2021/07/16 11:20:15;;;;;;;1.30;0.60;;;;;;;;;;4987492;28;20191;-73
2021/07/16 11:23:20;;;;;;;0.98;0.70;;;;;;;;;;4977589;28;20184;-72
2021/07/16 11:26:25;;;;;;;2.10;0.80;;;;;;;;;;4976718;28;20190;-72
2021/07/16 11:29:40;;;;;;;1.15;0.70;;;;;;;;;;4992772;28;20194;-72
2021/07/16 11:32:44;;;;;;;1.20;0.90;;;;;;;;;;4996030;28;20226;-72
2021/07/16 11:35:51;;;;;;;6.13;1.45;;;;;;;;;;4995497;28;20274;-72
2021/07/16 11:38:56;;;;;;;4.55;1.05;;;;;;;;;;4991383;28;20203;-72
2021/07/16 11:42:01;;;;;;;3.28;1.50;;;;;;;;;;4981463;28;20217;-72
2021/07/16 11:45:10;;;;;;;0.50;0.50;;;;;;;;;;4996352;28;20186;-72
2021/07/16 11:48:21;;;;;;;1.05;0.80;;;;;;;;;;4977184;28;20190;-72
2021/07/16 11:51:31;;;;;;;1.33;0.77;;;;;;;;;;4976154;28;20225;-72
2021/07/16 11:54:36;;;;;;;2.00;0.80;;;;;;;;;;4976110;28;20540;-72
2021/07/16 11:57:47;;;;;;;0.75;0.63;;;;;;;;;;4976944;28;20522;-72
2021/07/16 12:00:51;;;;;;;1.00;0.70;;;;;;;;;;4980978;28;20546;-73
2021/07/16 12:03:55;;;;;;;0.70;0.70;;;;;;;;;;4976224;28;20182;-73
2021/07/16 12:07:00;;;;;;;1.73;0.60;;;;;;;;;;4982384;28;20195;-73
2021/07/16 12:10:17;;;;;;;1.35;0.70;;;;;;;;;;4988708;28;20190;-73
2021/07/16 12:13:21;;;;;;;1.83;0.70;;;;;;;;;;4976559;28;20689;-72
2021/07/16 12:16:25;;;;;;;2.92;0.55;;;;;;;;;;4982762;28;20187;-73
2021/07/16 12:19:29;;;;;;;1.90;0.60;;;;;;;;;;4995356;28;20241;-73
2021/07/16 12:22:35;;;;;;;0.60;0.60;;;;;;;;;;4986795;28;20214;-72
2021/07/16 12:25:39;;;;;;;3.03;0.77;;;;;;;;;;4978574;28;20191;-72
2021/07/16 12:28:43;;;;;;;1.67;0.60;;;;;;;;;;4987253;28;20198;-73
2021/07/16 12:31:50;;;;;;;0.57;0.50;;;;;;;;;;4975947;28;20698;-73
2021/07/16 12:34:54;;;;;;;0.60;0.60;;;;;;;;;;4976044;28;20184;-72
2021/07/16 12:38:01;;;;;;;1.52;0.60;;;;;;;;;;4977762;28;20199;-73
2021/07/16 12:41:08;;;;;;;1.70;0.50;;;;;;;;;;4995217;28;20218;-73
2021/07/16 12:44:13;;;;;;;0.82;0.65;;;;;;;;;;4979215;28;20178;-73
2021/07/16 12:47:17;;;;;;;0.70;0.55;;;;;;;;;;4991394;28;20191;-73
2021/07/16 12:50:23;;;;;;;0.70;0.50;;;;;;;;;;4995221;28;20186;-72
2021/07/16 12:53:32;;;;;;;1.90;0.50;;;;;;;;;;4984096;28;20210;-73
2021/07/16 12:56:36;;;;;;;1.02;0.47;;;;;;;;;;4978400;28;20199;-73
2021/07/16 12:59:50;;;;;;;0.60;0.43;;;;;;;;;;4977040;28;20203;-73
2021/07/16 13:03:24;;;;;;;3.25;0.60;;;;;;;;;;4972937;28;20218;-73
2021/07/16 13:06:31;;;;;;;2.05;0.45;;;;;;;;;;4994150;28;20183;-73
2021/07/16 13:09:36;;;;;;;0.40;0.40;;;;;;;;;;4991467;28;20190;-73
2021/07/16 13:12:40;;;;;;;2.25;0.50;;;;;;;;;;4993719;28;20226;-73
2021/07/16 13:15:45;;;;;;;0.40;0.40;;;;;;;;;;4992586;28;20183;-73
2021/07/16 13:18:54;;;;;;;1.40;0.38;;;;;;;;;;4974962;28;20195;-73
2021/07/16 13:21:58;;;;;;;0.80;0.43;;;;;;;;;;4987012;28;20218;-73
2021/07/16 13:25:07;;;;;;;0.95;0.40;;;;;;;;;;4976851;28;20195;-73
2021/07/16 13:28:12;;;;;;;0.40;0.40;;;;;;;;;;4993325;28;20194;-73
2021/07/16 13:31:16;;;;;;;0.95;0.57;;;;;;;;;;4978951;28;20227;-73
2021/07/16 13:34:20;;;;;;;2.25;0.57;;;;;;;;;;4974175;28;20659;-72
2021/07/16 13:37:26;;;;;;;0.65;0.50;;;;;;;;;;4983609;28;20186;-73
2021/07/16 13:40:30;;;;;;;1.10;0.50;;;;;;;;;;4989286;28;20190;-73
2021/07/16 13:43:35;;;;;;;0.60;0.60;;;;;;;;;;4992697;28;20645;-72
2021/07/16 13:46:42;;;;;;;1.23;0.60;;;;;;;;;;4981843;28;20195;-73
2021/07/16 13:49:47;;;;;;;2.55;0.60;;;;;;;;;;4980530;28;20194;-73
2021/07/16 13:52:51;;;;;;;0.98;0.70;;;;;;;;;;4984662;28;20226;-73
2021/07/16 13:55:54;;;;;;;1.90;0.50;;;;;;;;;;4989574;28;20194;-73
2021/07/16 13:58:59;;;;;;;2.15;0.55;;;;;;;;;;4981916;28;20568;-73
2021/07/16 14:02:03;;;;;;;1.48;0.70;;;;;;;;;;4999543;28;20222;-72
2021/07/16 14:05:09;;;;;;;0.80;0.47;;;;;;;;;;5000447;28;20673;-73
2021/07/16 14:08:14;;;;;;;4.50;3.05;;;;;;;;;;4999949;28;20637;-72
2021/07/16 14:11:19;;;;;;;0.50;0.50;;;;;;;;;;4981585;28;20219;-73
2021/07/16 14:14:22;;;;;;;1.80;1.30;;;;;;;;;;4988875;28;20209;-73
2021/07/16 14:17:26;;;;;;;4.13;0.80;;;;;;;;;;4999952;28;20543;-73
2021/07/16 14:20:31;;;;;;;1.98;0.60;;;;;;;;;;4998772;28;20185;-73
2021/07/16 14:23:35;;;;;;;1.77;0.65;;;;;;;;;;4995244;28;20187;-73
2021/07/16 14:26:39;;;;;;;7.25;1.40;;;;;;;;;;4981058;28;20195;-73
2021/07/16 14:29:43;;;;;;;4.47;3.10;;;;;;;;;;4994338;28;20654;-73
2021/07/16 14:32:48;;;;;;;1.13;1.02;;;;;;;;;;4980711;28;20230;-73
2021/07/16 14:35:53;;;;;;;2.33;0.70;;;;;;;;;;4980617;28;20191;-73
2021/07/16 14:38:56;;;;;;;2.88;1.00;;;;;;;;;;4988219;28;20198;-73
2021/07/16 14:42:00;;;;;;;4.68;1.00;;;;;;;;;;5000104;28;20218;-74
2021/07/16 14:45:06;;;;;;;0.70;0.60;;;;;;;;;;4991394;28;20191;-72
2021/07/16 14:48:10;;;;;;;0.80;0.80;;;;;;;;;;4980670;28;20207;-73
2021/07/16 14:51:17;;;;;;;3.85;1.35;;;;;;;;;;5004054;28;20229;-73
2021/07/16 14:54:21;;;;;;;3.05;1.40;;;;;;;;;;4999121;28;20206;-73
2021/07/16 14:57:25;;;;;;;4.03;1.88;;;;;;;;;;4983094;28;20650;-73
2021/07/16 15:00:29;;;;;;;4.13;1.30;;;;;;;;;;4994229;28;20186;-73
2021/07/16 15:03:33;;;;;;;1.55;1.25;;;;;;;;;;4976874;28;20179;-73
2021/07/16 15:06:38;;;;;;;1.55;1.13;;;;;;;;;;4975766;28;20532;-73
2021/07/16 15:09:42;;;;;;;2.80;1.00;;;;;;;;;;4973400;28;20524;-73
2021/07/16 15:12:46;;;;;;;1.00;1.00;;;;;;;;;;4972604;28;20235;-73
2021/07/16 15:15:52;;;;;;;0.98;0.90;;;;;;;;;;4973611;28;20753;-72
2021/07/16 15:18:56;;;;;;;1.30;1.10;;;;;;;;;;4972669;28;20183;-73
2021/07/16 15:22:00;;;;;;;5.30;1.70;;;;;;;;;;4972269;28;20215;-73
2021/07/16 15:25:04;;;;;;;1.25;1.15;;;;;;;;;;4973416;28;20183;-73
2021/07/16 15:28:09;;;;;;;1.77;0.90;;;;;;;;;;4973436;28;20179;-73
2021/07/16 15:31:15;;;;;;;1.58;1.30;;;;;;;;;;4973199;28;20214;-73
2021/07/16 15:34:19;;;;;;;1.30;1.20;;;;;;;;;;4972925;28;20601;-73
2021/07/16 15:37:23;;;;;;;1.90;1.30;;;;;;;;;;4973017;28;20207;-73
2021/07/16 15:40:27;;;;;;;1.25;1.15;;;;;;;;;;4973367;28;20187;-73
2021/07/16 15:43:32;;;;;;;1.70;1.15;;;;;;;;;;4972254;28;20187;-72
2021/07/16 15:46:38;;;;;;;1.42;1.20;;;;;;;;;;4961108;28;20207;-73
2021/07/16 15:49:42;;;;;;;2.58;1.70;;;;;;;;;;4972969;28;20686;-72
2021/07/16 15:52:46;;;;;;;6.25;1.60;;;;;;;;;;4971989;28;20230;-72
2021/07/16 15:55:51;;;;;;;2.75;1.42;;;;;;;;;;4972591;28;20188;-73
2021/07/16 15:58:55;;;;;;;1.42;1.10;;;;;;;;;;4972920;28;20185;-73
2021/07/16 16:01:59;;;;;;;1.85;1.38;;;;;;;;;;4972630;28;20221;-73
2021/07/16 16:05:08;;;;;;;2.38;1.52;;;;;;;;;;4972666;28;20694;-72
2021/07/16 16:08:12;;;;;;;9.30;2.40;;;;;;;;;;4971473;28;20212;-72
2021/07/16 16:11:16;;;;;;;7.80;2.90;;;;;;;;;;4972440;28;20642;-72
2021/07/16 16:14:20;;;;;;;4.38;1.88;;;;;;;;;;4971340;28;20584;-72
2021/07/16 16:17:24;;;;;;;2.72;1.35;;;;;;;;;;4972488;28;20649;-72
2021/07/16 16:20:29;;;;;;;2.40;1.80;;;;;;;;;;4971022;28;20184;-72
2021/07/16 16:23:35;;;;;;;2.28;1.90;;;;;;;;;;4971445;28;20177;-72
2021/07/16 16:26:39;;;;;;;1.67;1.48;;;;;;;;;;4971567;28;20637;-72
2021/07/16 16:29:43;;;;;;;1.50;1.40;;;;;;;;;;4971573;28;20192;-72
2021/07/16 16:32:49;;;;;;;3.00;1.50;;;;;;;;;;4971738;28;20219;-72
2021/07/16 16:35:53;;;;;;;1.50;1.40;;;;;;;;;;4972162;28;20191;-74
2021/07/16 16:38:57;;;;;;;2.58;1.75;;;;;;;;;;4972256;28;20525;-72
2021/07/16 16:42:01;;;;;;;3.33;1.55;;;;;;;;;;4971923;28;20215;-72
2021/07/16 16:45:07;;;;;;;3.25;1.30;;;;;;;;;;4971620;28;20175;-72
2021/07/16 16:48:11;;;;;;;4.78;1.40;;;;;;;;;;4971946;28;20219;-72
2021/07/16 16:51:16;;;;;;;2.23;1.27;;;;;;;;;;4972023;28;20221;-72
2021/07/16 16:54:20;;;;;;;1.57;1.47;;;;;;;;;;4970718;28;20217;-72
2021/07/16 16:57:24;;;;;;;3.63;1.63;;;;;;;;;;4971437;28;20193;-74
2021/07/16 17:00:29;;;;;;;3.47;1.80;;;;;;;;;;4970900;28;20189;-73
2021/07/16 17:03:33;;;;;;;1.20;1.10;;;;;;;;;;4971674;28;20524;-73
2021/07/16 17:06:37;;;;;;;1.58;1.15;;;;;;;;;;4970631;28;20184;-74
2021/07/16 17:09:41;;;;;;;4.93;1.83;;;;;;;;;;4971280;28;20654;-73
2021/07/16 17:12:45;;;;;;;1.80;1.33;;;;;;;;;;4971268;28;20219;-72
2021/07/16 17:15:50;;;;;;;1.63;1.53;;;;;;;;;;4971416;28;20189;-72
2021/07/16 17:18:54;;;;;;;1.67;1.30;;;;;;;;;;4970429;28;20196;-72
2021/07/16 17:21:58;;;;;;;13.33;2.90;;;;;;;;;;4970903;28;20227;-72
2021/07/16 17:25:06;;;;;;;6.47;2.40;;;;;;;;;;4970336;28;20199;-74
2021/07/16 17:28:10;;;;;;;6.50;2.10;;;;;;;;;;4971158;28;20206;-72
2021/07/16 17:31:14;;;;;;;6.07;2.90;;;;;;;;;;4970018;28;20220;-75
2021/07/16 17:34:18;;;;;;;3.47;2.10;;;;;;;;;;5012648;23;20566;-74
2021/07/16 17:37:24;;;;;;;6.13;1.60;;;;;;;;;;4994437;28;20187;-75
2021/07/16 17:40:30;;;;;;;6.00;1.87;;;;;;;;;;4994458;28;20633;-75
2021/07/16 17:43:34;;;;;;;5.23;1.60;;;;;;;;;;4974908;28;20183;-75
2021/07/16 17:46:38;;;;;;;3.63;2.00;;;;;;;;;;4974144;28;20641;-75
2021/07/16 17:49:42;;;;;;;3.40;1.73;;;;;;;;;;4974931;28;20185;-75
2021/07/16 17:52:47;;;;;;;1.93;1.43;;;;;;;;;;4973744;28;20217;-75
2021/07/16 17:55:51;;;;;;;2.23;1.80;;;;;;;;;;4977533;28;20536;-74
2021/07/16 17:58:55;;;;;;;4.73;1.87;;;;;;;;;;4981960;28;20212;-75
2021/07/16 18:01:59;;;;;;;2.87;1.60;;;;;;;;;;4994102;28;20223;-75
2021/07/16 18:05:04;;;;;;;8.30;2.00;;;;;;;;;;4988725;28;20190;-74
2021/07/16 18:08:10;;;;;;;4.50;1.87;;;;;;;;;;4990088;28;20527;-74
2021/07/16 18:11:17;;;;;;;3.43;1.80;;;;;;;;;;4989998;28;20223;-74
2021/07/16 18:14:21;;;;;;;5.27;1.80;;;;;;;;;;4989486;28;20207;-75
2021/07/16 18:17:26;;;;;;;1.87;1.60;;;;;;;;;;4979094;28;20189;-74
2021/07/16 18:20:30;;;;;;;2.60;1.70;;;;;;;;;;4990621;28;20190;-74
2021/07/16 18:23:34;;;;;;;2.03;1.83;;;;;;;;;;4990141;28;20183;-75
2021/07/16 18:26:40;;;;;;;2.27;1.73;;;;;;;;;;4978453;28;20194;-74
2021/07/16 18:29:45;;;;;;;2.57;1.47;;;;;;;;;;4989364;28;20178;-74